sensor_id;sensor_type;location;lat;lon;timestamp;P1;durP1;ratioP1;P2;durP2;ratioP2
32824;SDS011;51060;42.640;24.356;2024-01-10T00:01:55;1.30;;;1.17;;
32824;SDS011;51060;42.640;24.356;2024-01-10T00:04:21;2.57;;;1.27;;
32824;SDS011;51060;42.640;24.356;2024-01-10T00:06:46;11.67;;;7.00;;
32824;SDS011;51060;42.640;24.356;2024-01-10T00:09:12;4.20;;;2.20;;
32824;SDS011;51060;42.640;24.356;2024-01-10T00:11:37;3.30;;;1.93;;
32824;SDS011;51060;42.640;24.356;2024-01-10T00:14:04;1.77;;;1.50;;
32824;SDS011;51060;42.640;24.356;2024-01-10T00:16:30;4.27;;;1.90;;
32824;SDS011;51060;42.640;24.356;2024-01-10T00:18:56;1.83;;;1.67;;
32824;SDS011;51060;42.640;24.356;2024-01-10T00:21:21;1.17;;;1.00;;
32824;SDS011;51060;42.640;24.356;2024-01-10T00:23:47;1.70;;;1.30;;
32824;SDS011;51060;42.640;24.356;2024-01-10T00:26:13;2.33;;;1.50;;
32824;SDS011;51060;42.640;24.356;2024-01-10T00:28:38;1.47;;;0.97;;
32824;SDS011;51060;42.640;24.356;2024-01-10T00:31:04;0.80;;;0.80;;
32824;SDS011;51060;42.640;24.356;2024-01-10T00:33:29;1.07;;;0.97;;
32824;SDS011;51060;42.640;24.356;2024-01-10T00:35:55;1.10;;;0.90;;
32824;SDS011;51060;42.640;24.356;2024-01-10T00:38:21;1.30;;;1.00;;
32824;SDS011;51060;42.640;24.356;2024-01-10T00:40:46;0.87;;;0.70;;
32824;SDS011;51060;42.640;24.356;2024-01-10T00:43:12;2.00;;;1.73;;
32824;SDS011;51060;42.640;24.356;2024-01-10T00:45:37;12.07;;;7.43;;
32824;SDS011;51060;42.640;24.356;2024-01-10T00:48:03;2.70;;;1.80;;
32824;SDS011;51060;42.640;24.356;2024-01-10T00:50:29;5.93;;;3.60;;
32824;SDS011;51060;42.640;24.356;2024-01-10T00:52:55;3.87;;;2.93;;
32824;SDS011;51060;42.640;24.356;2024-01-10T00:55:20;1.03;;;0.93;;
32824;SDS011;51060;42.640;24.356;2024-01-10T00:57:46;12.30;;;10.80;;
32824;SDS011;51060;42.640;24.356;2024-01-10T01:00:11;8.97;;;8.07;;
32824;SDS011;51060;42.640;24.356;2024-01-10T01:02:38;5.93;;;4.97;;
32824;SDS011;51060;42.640;24.356;2024-01-10T01:05:05;3.63;;;3.30;;
32824;SDS011;51060;42.640;24.356;2024-01-10T01:07:32;11.83;;;9.93;;
32824;SDS011;51060;42.640;24.356;2024-01-10T01:09:58;2.53;;;2.13;;
32824;SDS011;51060;42.640;24.356;2024-01-10T01:12:23;2.10;;;1.90;;
32824;SDS011;51060;42.640;24.356;2024-01-10T01:14:49;4.10;;;2.20;;
32824;SDS011;51060;42.640;24.356;2024-01-10T01:17:15;2.90;;;2.30;;
32824;SDS011;51060;42.640;24.356;2024-01-10T01:19:40;1.50;;;1.20;;
32824;SDS011;51060;42.640;24.356;2024-01-10T01:22:06;2.13;;;1.93;;
32824;SDS011;51060;42.640;24.356;2024-01-10T01:24:31;4.00;;;2.77;;
32824;SDS011;51060;42.640;24.356;2024-01-10T01:26:57;12.93;;;8.80;;
32824;SDS011;51060;42.640;24.356;2024-01-10T01:29:23;3.50;;;2.63;;
32824;SDS011;51060;42.640;24.356;2024-01-10T01:31:49;1.97;;;1.40;;
32824;SDS011;51060;42.640;24.356;2024-01-10T01:34:15;5.70;;;2.67;;
32824;SDS011;51060;42.640;24.356;2024-01-10T01:36:40;5.00;;;2.30;;
32824;SDS011;51060;42.640;24.356;2024-01-10T01:39:06;3.20;;;1.60;;
32824;SDS011;51060;42.640;24.356;2024-01-10T01:41:32;3.77;;;2.03;;
32824;SDS011;51060;42.640;24.356;2024-01-10T01:43:57;2.57;;;1.70;;
32824;SDS011;51060;42.640;24.356;2024-01-10T01:46:23;6.37;;;4.17;;
32824;SDS011;51060;42.640;24.356;2024-01-10T01:48:49;9.73;;;6.63;;
32824;SDS011;51060;42.640;24.356;2024-01-10T01:51:15;9.47;;;5.83;;
32824;SDS011;51060;42.640;24.356;2024-01-10T01:53:43;9.73;;;5.37;;
32824;SDS011;51060;42.640;24.356;2024-01-10T01:56:10;4.93;;;2.93;;
32824;SDS011;51060;42.640;24.356;2024-01-10T01:58:36;1.13;;;1.00;;
32824;SDS011;51060;42.640;24.356;2024-01-10T02:01:03;1.03;;;0.93;;
32824;SDS011;51060;42.640;24.356;2024-01-10T02:03:33;1.70;;;1.50;;
32824;SDS011;51060;42.640;24.356;2024-01-10T02:05:59;1.40;;;1.10;;
32824;SDS011;51060;42.640;24.356;2024-01-10T02:08:29;4.63;;;3.20;;
32824;SDS011;51060;42.640;24.356;2024-01-10T02:10:58;5.03;;;3.20;;
32824;SDS011;51060;42.640;24.356;2024-01-10T02:13:23;2.83;;;1.40;;
32824;SDS011;51060;42.640;24.356;2024-01-10T02:15:49;19.33;;;9.97;;
32824;SDS011;51060;42.640;24.356;2024-01-10T02:18:15;28.73;;;14.27;;
32824;SDS011;51060;42.640;24.356;2024-01-10T02:20:44;61.53;;;28.13;;
32824;SDS011;51060;42.640;24.356;2024-01-10T02:23:10;59.13;;;26.13;;
32824;SDS011;51060;42.640;24.356;2024-01-10T02:25:36;16.67;;;10.73;;
32824;SDS011;51060;42.640;24.356;2024-01-10T02:28:02;8.87;;;5.57;;
32824;SDS011;51060;42.640;24.356;2024-01-10T02:30:28;6.37;;;4.77;;
32824;SDS011;51060;42.640;24.356;2024-01-10T02:32:54;31.30;;;13.20;;
32824;SDS011;51060;42.640;24.356;2024-01-10T02:35:19;51.47;;;22.27;;
32824;SDS011;51060;42.640;24.356;2024-01-10T02:37:45;8.50;;;3.97;;
32824;SDS011;51060;42.640;24.356;2024-01-10T02:40:11;2.30;;;1.63;;
32824;SDS011;51060;42.640;24.356;2024-01-10T02:42:37;1.33;;;1.13;;
32824;SDS011;51060;42.640;24.356;2024-01-10T02:45:03;1.03;;;0.93;;
32824;SDS011;51060;42.640;24.356;2024-01-10T02:47:29;3.13;;;1.87;;
32824;SDS011;51060;42.640;24.356;2024-01-10T02:49:55;8.20;;;3.83;;
32824;SDS011;51060;42.640;24.356;2024-01-10T02:52:20;5.20;;;2.77;;
32824;SDS011;51060;42.640;24.356;2024-01-10T02:54:46;5.97;;;2.93;;
32824;SDS011;51060;42.640;24.356;2024-01-10T02:57:12;2.67;;;1.83;;
32824;SDS011;51060;42.640;24.356;2024-01-10T02:59:38;1.30;;;1.20;;
32824;SDS011;51060;42.640;24.356;2024-01-10T03:02:04;1.30;;;1.07;;
32824;SDS011;51060;42.640;24.356;2024-01-10T03:04:29;1.07;;;1.00;;
32824;SDS011;51060;42.640;24.356;2024-01-10T03:06:55;2.70;;;1.40;;
32824;SDS011;51060;42.640;24.356;2024-01-10T03:09:22;1.40;;;1.30;;
32824;SDS011;51060;42.640;24.356;2024-01-10T03:11:48;1.83;;;1.20;;
32824;SDS011;51060;42.640;24.356;2024-01-10T03:14:14;1.13;;;0.93;;
32824;SDS011;51060;42.640;24.356;2024-01-10T03:16:40;2.43;;;1.30;;
32824;SDS011;51060;42.640;24.356;2024-01-10T03:19:08;1.63;;;1.00;;
32824;SDS011;51060;42.640;24.356;2024-01-10T03:21:34;2.30;;;1.33;;
32824;SDS011;51060;42.640;24.356;2024-01-10T03:24:00;1.40;;;1.17;;
32824;SDS011;51060;42.640;24.356;2024-01-10T03:26:26;1.43;;;1.27;;
32824;SDS011;51060;42.640;24.356;2024-01-10T03:28:52;2.93;;;1.47;;
32824;SDS011;51060;42.640;24.356;2024-01-10T03:31:18;4.13;;;2.10;;
32824;SDS011;51060;42.640;24.356;2024-01-10T03:33:45;8.50;;;3.70;;
32824;SDS011;51060;42.640;24.356;2024-01-10T03:36:11;6.87;;;3.43;;
32824;SDS011;51060;42.640;24.356;2024-01-10T03:38:39;7.10;;;3.37;;
32824;SDS011;51060;42.640;24.356;2024-01-10T03:41:04;7.53;;;4.30;;
32824;SDS011;51060;42.640;24.356;2024-01-10T03:43:30;8.93;;;4.80;;
32824;SDS011;51060;42.640;24.356;2024-01-10T03:45:59;11.30;;;5.80;;
32824;SDS011;51060;42.640;24.356;2024-01-10T03:48:24;12.47;;;6.80;;
32824;SDS011;51060;42.640;24.356;2024-01-10T03:50:50;14.07;;;7.20;;
32824;SDS011;51060;42.640;24.356;2024-01-10T03:53:16;11.40;;;6.73;;
32824;SDS011;51060;42.640;24.356;2024-01-10T03:55:41;10.03;;;5.43;;
32824;SDS011;51060;42.640;24.356;2024-01-10T03:58:07;7.60;;;4.13;;
32824;SDS011;51060;42.640;24.356;2024-01-10T04:00:33;7.23;;;4.50;;
32824;SDS011;51060;42.640;24.356;2024-01-10T04:02:58;6.63;;;3.90;;
32824;SDS011;51060;42.640;24.356;2024-01-10T04:05:24;8.57;;;5.30;;
32824;SDS011;51060;42.640;24.356;2024-01-10T04:07:50;9.07;;;5.10;;
32824;SDS011;51060;42.640;24.356;2024-01-10T04:10:17;8.80;;;4.70;;
32824;SDS011;51060;42.640;24.356;2024-01-10T04:12:43;8.63;;;5.17;;
32824;SDS011;51060;42.640;24.356;2024-01-10T04:15:09;9.70;;;5.20;;
32824;SDS011;51060;42.640;24.356;2024-01-10T04:17:36;8.90;;;4.93;;
32824;SDS011;51060;42.640;24.356;2024-01-10T04:20:02;9.93;;;6.00;;
32824;SDS011;51060;42.640;24.356;2024-01-10T04:22:28;14.47;;;7.40;;
32824;SDS011;51060;42.640;24.356;2024-01-10T04:24:55;16.93;;;8.03;;
32824;SDS011;51060;42.640;24.356;2024-01-10T04:27:22;12.10;;;6.23;;
32824;SDS011;51060;42.640;24.356;2024-01-10T04:29:48;9.77;;;5.77;;
32824;SDS011;51060;42.640;24.356;2024-01-10T04:32:13;6.50;;;4.90;;
32824;SDS011;51060;42.640;24.356;2024-01-10T04:34:39;5.87;;;3.80;;
32824;SDS011;51060;42.640;24.356;2024-01-10T04:37:05;14.80;;;9.13;;
32824;SDS011;51060;42.640;24.356;2024-01-10T04:39:34;19.20;;;10.80;;
32824;SDS011;51060;42.640;24.356;2024-01-10T04:42:00;24.50;;;14.37;;
32824;SDS011;51060;42.640;24.356;2024-01-10T04:44:26;38.47;;;21.80;;
32824;SDS011;51060;42.640;24.356;2024-01-10T04:46:52;35.30;;;20.17;;
32824;SDS011;51060;42.640;24.356;2024-01-10T04:49:17;17.87;;;10.53;;
32824;SDS011;51060;42.640;24.356;2024-01-10T04:51:43;13.57;;;7.77;;
32824;SDS011;51060;42.640;24.356;2024-01-10T04:54:10;13.43;;;7.50;;
32824;SDS011;51060;42.640;24.356;2024-01-10T04:56:36;55.43;;;29.67;;
32824;SDS011;51060;42.640;24.356;2024-01-10T04:59:02;34.00;;;21.00;;
32824;SDS011;51060;42.640;24.356;2024-01-10T05:01:28;17.20;;;9.57;;
32824;SDS011;51060;42.640;24.356;2024-01-10T05:03:55;15.23;;;6.93;;
32824;SDS011;51060;42.640;24.356;2024-01-10T05:06:20;20.40;;;11.23;;
32824;SDS011;51060;42.640;24.356;2024-01-10T05:08:46;15.33;;;8.43;;
32824;SDS011;51060;42.640;24.356;2024-01-10T05:11:12;21.80;;;10.93;;
32824;SDS011;51060;42.640;24.356;2024-01-10T05:13:38;24.17;;;14.50;;
32824;SDS011;51060;42.640;24.356;2024-01-10T05:16:04;22.83;;;13.67;;
32824;SDS011;51060;42.640;24.356;2024-01-10T05:18:30;23.93;;;13.27;;
32824;SDS011;51060;42.640;24.356;2024-01-10T05:20:56;18.40;;;10.57;;
32824;SDS011;51060;42.640;24.356;2024-01-10T05:23:22;22.90;;;17.23;;
32824;SDS011;51060;42.640;24.356;2024-01-10T05:25:48;14.63;;;8.40;;
32824;SDS011;51060;42.640;24.356;2024-01-10T05:28:14;7.13;;;4.27;;
32824;SDS011;51060;42.640;24.356;2024-01-10T05:30:40;6.50;;;3.70;;
32824;SDS011;51060;42.640;24.356;2024-01-10T05:33:07;2.20;;;1.73;;
32824;SDS011;51060;42.640;24.356;2024-01-10T05:35:33;2.57;;;1.70;;
32824;SDS011;51060;42.640;24.356;2024-01-10T05:38:01;7.87;;;3.77;;
32824;SDS011;51060;42.640;24.356;2024-01-10T05:40:27;3.10;;;1.83;;
32824;SDS011;51060;42.640;24.356;2024-01-10T05:42:55;1.17;;;1.03;;
32824;SDS011;51060;42.640;24.356;2024-01-10T05:45:21;2.30;;;1.63;;
32824;SDS011;51060;42.640;24.356;2024-01-10T05:47:47;2.57;;;2.00;;
32824;SDS011;51060;42.640;24.356;2024-01-10T05:50:13;4.73;;;3.23;;
32824;SDS011;51060;42.640;24.356;2024-01-10T05:52:39;5.83;;;3.80;;
32824;SDS011;51060;42.640;24.356;2024-01-10T05:55:05;8.10;;;4.37;;
32824;SDS011;51060;42.640;24.356;2024-01-10T05:57:34;5.50;;;3.90;;
32824;SDS011;51060;42.640;24.356;2024-01-10T06:00:00;6.07;;;4.80;;
32824;SDS011;51060;42.640;24.356;2024-01-10T06:02:26;4.73;;;3.23;;
32824;SDS011;51060;42.640;24.356;2024-01-10T06:04:52;2.83;;;2.50;;
32824;SDS011;51060;42.640;24.356;2024-01-10T06:07:18;4.87;;;3.20;;
32824;SDS011;51060;42.640;24.356;2024-01-10T06:09:45;5.13;;;3.63;;
32824;SDS011;51060;42.640;24.356;2024-01-10T06:12:11;14.50;;;9.00;;
32824;SDS011;51060;42.640;24.356;2024-01-10T06:14:38;11.37;;;6.57;;
32824;SDS011;51060;42.640;24.356;2024-01-10T06:17:04;31.60;;;19.23;;
32824;SDS011;51060;42.640;24.356;2024-01-10T06:19:30;29.43;;;17.30;;
32824;SDS011;51060;42.640;24.356;2024-01-10T06:21:59;35.07;;;19.17;;
32824;SDS011;51060;42.640;24.356;2024-01-10T06:24:25;26.83;;;15.77;;
32824;SDS011;51060;42.640;24.356;2024-01-10T06:26:51;30.27;;;17.63;;
32824;SDS011;51060;42.640;24.356;2024-01-10T06:29:17;32.03;;;21.27;;
32824;SDS011;51060;42.640;24.356;2024-01-10T06:31:43;48.00;;;28.73;;
32824;SDS011;51060;42.640;24.356;2024-01-10T06:34:09;134.60;;;58.43;;
32824;SDS011;51060;42.640;24.356;2024-01-10T06:36:35;130.63;;;58.20;;
32824;SDS011;51060;42.640;24.356;2024-01-10T06:39:01;129.40;;;54.67;;
32824;SDS011;51060;42.640;24.356;2024-01-10T06:41:26;126.83;;;56.07;;
32824;SDS011;51060;42.640;24.356;2024-01-10T06:43:52;92.33;;;48.30;;
32824;SDS011;51060;42.640;24.356;2024-01-10T06:46:18;73.37;;;39.93;;
32824;SDS011;51060;42.640;24.356;2024-01-10T06:48:44;78.93;;;44.50;;
32824;SDS011;51060;42.640;24.356;2024-01-10T06:51:10;81.00;;;43.73;;
32824;SDS011;51060;42.640;24.356;2024-01-10T06:53:37;73.37;;;42.23;;
32824;SDS011;51060;42.640;24.356;2024-01-10T06:56:03;95.10;;;45.40;;
32824;SDS011;51060;42.640;24.356;2024-01-10T06:58:29;107.83;;;52.57;;
32824;SDS011;51060;42.640;24.356;2024-01-10T07:00:55;82.97;;;44.57;;
32824;SDS011;51060;42.640;24.356;2024-01-10T07:03:22;90.60;;;44.97;;
32824;SDS011;51060;42.640;24.356;2024-01-10T07:05:48;79.70;;;44.50;;
32824;SDS011;51060;42.640;24.356;2024-01-10T07:08:14;84.43;;;45.07;;
32824;SDS011;51060;42.640;24.356;2024-01-10T07:10:39;61.20;;;36.77;;
32824;SDS011;51060;42.640;24.356;2024-01-10T07:13:05;45.57;;;27.43;;
32824;SDS011;51060;42.640;24.356;2024-01-10T07:15:31;40.73;;;25.07;;
32824;SDS011;51060;42.640;24.356;2024-01-10T07:17:57;57.80;;;34.03;;
32824;SDS011;51060;42.640;24.356;2024-01-10T07:20:23;76.90;;;41.83;;
32824;SDS011;51060;42.640;24.356;2024-01-10T07:22:49;97.87;;;50.47;;
32824;SDS011;51060;42.640;24.356;2024-01-10T07:25:16;76.90;;;43.53;;
32824;SDS011;51060;42.640;24.356;2024-01-10T07:27:45;70.60;;;40.97;;
32824;SDS011;51060;42.640;24.356;2024-01-10T07:30:11;82.23;;;47.57;;
32824;SDS011;51060;42.640;24.356;2024-01-10T07:32:40;76.70;;;42.87;;
32824;SDS011;51060;42.640;24.356;2024-01-10T07:35:06;75.57;;;43.37;;
32824;SDS011;51060;42.640;24.356;2024-01-10T07:37:37;103.67;;;54.37;;
32824;SDS011;51060;42.640;24.356;2024-01-10T07:40:05;81.00;;;46.77;;
32824;SDS011;51060;42.640;24.356;2024-01-10T07:42:35;69.47;;;40.90;;
32824;SDS011;51060;42.640;24.356;2024-01-10T07:45:01;68.10;;;38.50;;
32824;SDS011;51060;42.640;24.356;2024-01-10T07:47:33;84.00;;;45.87;;
32824;SDS011;51060;42.640;24.356;2024-01-10T07:50:06;76.47;;;45.43;;
32824;SDS011;51060;42.640;24.356;2024-01-10T07:52:32;83.33;;;45.10;;
32824;SDS011;51060;42.640;24.356;2024-01-10T07:54:59;73.63;;;42.17;;
32824;SDS011;51060;42.640;24.356;2024-01-10T07:57:26;60.47;;;36.17;;
32824;SDS011;51060;42.640;24.356;2024-01-10T07:59:52;51.60;;;33.30;;
32824;SDS011;51060;42.640;24.356;2024-01-10T08:02:18;56.13;;;35.00;;
32824;SDS011;51060;42.640;24.356;2024-01-10T08:04:43;57.50;;;36.23;;
32824;SDS011;51060;42.640;24.356;2024-01-10T08:07:09;59.30;;;37.97;;
32824;SDS011;51060;42.640;24.356;2024-01-10T08:09:35;55.97;;;33.10;;
32824;SDS011;51060;42.640;24.356;2024-01-10T08:12:01;51.57;;;32.40;;
32824;SDS011;51060;42.640;24.356;2024-01-10T08:14:28;49.33;;;30.13;;
32824;SDS011;51060;42.640;24.356;2024-01-10T08:16:53;39.53;;;24.80;;
32824;SDS011;51060;42.640;24.356;2024-01-10T08:19:20;46.27;;;26.77;;
32824;SDS011;51060;42.640;24.356;2024-01-10T08:21:46;35.03;;;21.73;;
32824;SDS011;51060;42.640;24.356;2024-01-10T08:24:12;25.77;;;17.00;;
32824;SDS011;51060;42.640;24.356;2024-01-10T08:26:37;25.23;;;12.20;;
32824;SDS011;51060;42.640;24.356;2024-01-10T08:29:03;17.13;;;12.33;;
32824;SDS011;51060;42.640;24.356;2024-01-10T08:31:29;16.67;;;11.10;;
32824;SDS011;51060;42.640;24.356;2024-01-10T08:33:55;23.90;;;15.07;;
32824;SDS011;51060;42.640;24.356;2024-01-10T08:36:22;31.70;;;20.07;;
32824;SDS011;51060;42.640;24.356;2024-01-10T08:38:49;29.93;;;19.40;;
32824;SDS011;51060;42.640;24.356;2024-01-10T08:41:16;37.80;;;25.30;;
32824;SDS011;51060;42.640;24.356;2024-01-10T08:43:42;39.53;;;23.13;;
32824;SDS011;51060;42.640;24.356;2024-01-10T08:46:08;36.33;;;22.13;;
32824;SDS011;51060;42.640;24.356;2024-01-10T08:48:34;38.77;;;24.87;;
32824;SDS011;51060;42.640;24.356;2024-01-10T08:51:01;41.83;;;28.07;;
32824;SDS011;51060;42.640;24.356;2024-01-10T08:53:27;46.97;;;26.67;;
32824;SDS011;51060;42.640;24.356;2024-01-10T08:55:53;46.80;;;28.40;;
32824;SDS011;51060;42.640;24.356;2024-01-10T08:58:19;43.60;;;26.70;;
32824;SDS011;51060;42.640;24.356;2024-01-10T09:00:45;44.03;;;26.20;;
32824;SDS011;51060;42.640;24.356;2024-01-10T09:03:11;38.47;;;24.73;;
32824;SDS011;51060;42.640;24.356;2024-01-10T09:05:37;46.80;;;27.97;;
32824;SDS011;51060;42.640;24.356;2024-01-10T09:08:03;41.23;;;25.70;;
32824;SDS011;51060;42.640;24.356;2024-01-10T09:10:29;38.57;;;24.67;;
32824;SDS011;51060;42.640;24.356;2024-01-10T09:12:54;15.97;;;10.67;;
32824;SDS011;51060;42.640;24.356;2024-01-10T09:15:20;16.83;;;11.57;;
32824;SDS011;51060;42.640;24.356;2024-01-10T09:17:46;21.57;;;14.17;;
32824;SDS011;51060;42.640;24.356;2024-01-10T09:20:11;22.37;;;12.77;;
32824;SDS011;51060;42.640;24.356;2024-01-10T09:22:41;2.80;;;2.40;;
32824;SDS011;51060;42.640;24.356;2024-01-10T09:25:06;3.50;;;2.67;;
32824;SDS011;51060;42.640;24.356;2024-01-10T09:27:32;7.37;;;4.67;;
32824;SDS011;51060;42.640;24.356;2024-01-10T09:30:01;4.13;;;2.67;;
32824;SDS011;51060;42.640;24.356;2024-01-10T09:32:28;6.87;;;4.67;;
32824;SDS011;51060;42.640;24.356;2024-01-10T09:34:55;8.17;;;5.00;;
32824;SDS011;51060;42.640;24.356;2024-01-10T09:37:21;4.50;;;2.80;;
32824;SDS011;51060;42.640;24.356;2024-01-10T09:39:47;6.57;;;4.60;;
32824;SDS011;51060;42.640;24.356;2024-01-10T09:42:13;3.27;;;2.30;;
32824;SDS011;51060;42.640;24.356;2024-01-10T09:44:40;2.30;;;2.10;;
32824;SDS011;51060;42.640;24.356;2024-01-10T09:47:07;1.93;;;1.60;;
32824;SDS011;51060;42.640;24.356;2024-01-10T09:49:33;2.50;;;2.00;;
32824;SDS011;51060;42.640;24.356;2024-01-10T09:51:59;2.43;;;1.27;;
32824;SDS011;51060;42.640;24.356;2024-01-10T09:54:25;2.60;;;2.03;;
32824;SDS011;51060;42.640;24.356;2024-01-10T09:56:51;6.20;;;3.97;;
32824;SDS011;51060;42.640;24.356;2024-01-10T09:59:18;3.80;;;2.87;;
32824;SDS011;51060;42.640;24.356;2024-01-10T10:01:44;3.00;;;2.27;;
32824;SDS011;51060;42.640;24.356;2024-01-10T10:04:11;6.13;;;3.50;;
32824;SDS011;51060;42.640;24.356;2024-01-10T10:06:37;3.10;;;2.60;;
32824;SDS011;51060;42.640;24.356;2024-01-10T10:09:03;3.07;;;2.10;;
32824;SDS011;51060;42.640;24.356;2024-01-10T10:11:29;13.37;;;8.10;;
32824;SDS011;51060;42.640;24.356;2024-01-10T10:13:55;15.90;;;10.77;;
32824;SDS011;51060;42.640;24.356;2024-01-10T10:16:24;8.40;;;5.80;;
32824;SDS011;51060;42.640;24.356;2024-01-10T10:18:54;11.63;;;7.13;;
32824;SDS011;51060;42.640;24.356;2024-01-10T10:21:24;9.67;;;6.20;;
32824;SDS011;51060;42.640;24.356;2024-01-10T10:23:57;6.33;;;3.40;;
32824;SDS011;51060;42.640;24.356;2024-01-10T10:26:23;10.00;;;5.70;;
32824;SDS011;51060;42.640;24.356;2024-01-10T10:28:52;31.60;;;15.80;;
32824;SDS011;51060;42.640;24.356;2024-01-10T10:31:18;3.70;;;2.50;;
32824;SDS011;51060;42.640;24.356;2024-01-10T10:33:44;1.93;;;1.10;;
32824;SDS011;51060;42.640;24.356;2024-01-10T10:36:10;2.33;;;1.57;;
32824;SDS011;51060;42.640;24.356;2024-01-10T10:38:36;5.27;;;3.77;;
32824;SDS011;51060;42.640;24.356;2024-01-10T10:41:05;4.33;;;2.90;;
32824;SDS011;51060;42.640;24.356;2024-01-10T10:43:35;9.37;;;5.70;;
32824;SDS011;51060;42.640;24.356;2024-01-10T10:46:03;11.80;;;7.33;;
32824;SDS011;51060;42.640;24.356;2024-01-10T10:48:34;14.77;;;9.67;;
32824;SDS011;51060;42.640;24.356;2024-01-10T10:51:04;39.63;;;22.57;;
32824;SDS011;51060;42.640;24.356;2024-01-10T10:53:34;3.77;;;2.90;;
32824;SDS011;51060;42.640;24.356;2024-01-10T10:56:05;3.40;;;2.93;;
32824;SDS011;51060;42.640;24.356;2024-01-10T10:58:42;7.33;;;3.83;;
32824;SDS011;51060;42.640;24.356;2024-01-10T11:01:10;2.10;;;1.10;;
32824;SDS011;51060;42.640;24.356;2024-01-10T11:03:37;8.67;;;4.43;;
32824;SDS011;51060;42.640;24.356;2024-01-10T11:06:05;2.43;;;1.80;;
32824;SDS011;51060;42.640;24.356;2024-01-10T11:08:33;3.67;;;2.30;;
32824;SDS011;51060;42.640;24.356;2024-01-10T11:11:02;2.17;;;1.83;;
32824;SDS011;51060;42.640;24.356;2024-01-10T11:16:34;1.40;;;1.20;;
32824;SDS011;51060;42.640;24.356;2024-01-10T11:19:35;7.87;;;7.07;;
32824;SDS011;51060;42.640;24.356;2024-01-10T11:25:05;18.17;;;12.57;;
32824;SDS011;51060;42.640;24.356;2024-01-10T11:27:33;10.10;;;6.23;;
32824;SDS011;51060;42.640;24.356;2024-01-10T11:29:59;5.83;;;3.80;;
32824;SDS011;51060;42.640;24.356;2024-01-10T11:32:25;5.77;;;4.23;;
32824;SDS011;51060;42.640;24.356;2024-01-10T11:35:05;1.90;;;1.53;;
32824;SDS011;51060;42.640;24.356;2024-01-10T11:37:42;11.93;;;7.40;;
32824;SDS011;51060;42.640;24.356;2024-01-10T11:40:08;5.37;;;3.37;;
32824;SDS011;51060;42.640;24.356;2024-01-10T11:42:44;5.03;;;3.80;;
32824;SDS011;51060;42.640;24.356;2024-01-10T11:47:55;7.27;;;4.60;;
32824;SDS011;51060;42.640;24.356;2024-01-10T11:50:21;9.90;;;6.13;;
32824;SDS011;51060;42.640;24.356;2024-01-10T11:52:52;8.50;;;5.77;;
32824;SDS011;51060;42.640;24.356;2024-01-10T11:58:12;8.03;;;6.03;;
32824;SDS011;51060;42.640;24.356;2024-01-10T12:00:38;10.60;;;8.17;;
32824;SDS011;51060;42.640;24.356;2024-01-10T12:03:05;8.07;;;5.47;;
32824;SDS011;51060;42.640;24.356;2024-01-10T12:05:31;4.70;;;3.57;;
32824;SDS011;51060;42.640;24.356;2024-01-10T12:07:57;1.83;;;1.57;;
32824;SDS011;51060;42.640;24.356;2024-01-10T12:10:25;21.50;;;12.90;;
32824;SDS011;51060;42.640;24.356;2024-01-10T12:12:52;17.20;;;11.70;;
32824;SDS011;51060;42.640;24.356;2024-01-10T12:15:20;2.83;;;2.53;;
32824;SDS011;51060;42.640;24.356;2024-01-10T12:17:45;9.13;;;5.90;;
32824;SDS011;51060;42.640;24.356;2024-01-10T12:20:11;7.60;;;4.47;;
32824;SDS011;51060;42.640;24.356;2024-01-10T12:22:37;7.33;;;5.13;;
32824;SDS011;51060;42.640;24.356;2024-01-10T12:25:06;13.63;;;8.37;;
32824;SDS011;51060;42.640;24.356;2024-01-10T12:27:32;3.10;;;2.50;;
32824;SDS011;51060;42.640;24.356;2024-01-10T12:30:01;2.43;;;2.20;;
32824;SDS011;51060;42.640;24.356;2024-01-10T12:32:27;5.67;;;4.27;;
32824;SDS011;51060;42.640;24.356;2024-01-10T12:35:03;9.60;;;6.57;;
32824;SDS011;51060;42.640;24.356;2024-01-10T12:50:14;4.30;;;2.20;;
32824;SDS011;51060;42.640;24.356;2024-01-10T12:52:40;28.50;;;18.53;;
32824;SDS011;51060;42.640;24.356;2024-01-10T12:55:08;17.57;;;12.40;;
32824;SDS011;51060;42.640;24.356;2024-01-10T12:57:34;19.20;;;13.27;;
32824;SDS011;51060;42.640;24.356;2024-01-10T13:00:00;18.57;;;14.00;;
32824;SDS011;51060;42.640;24.356;2024-01-10T13:02:31;6.20;;;4.83;;
32824;SDS011;51060;42.640;24.356;2024-01-10T13:05:01;6.57;;;5.90;;
32824;SDS011;51060;42.640;24.356;2024-01-10T13:07:26;12.50;;;10.63;;
32824;SDS011;51060;42.640;24.356;2024-01-10T13:09:56;5.23;;;4.73;;
32824;SDS011;51060;42.640;24.356;2024-01-10T13:12:21;4.30;;;3.33;;
32824;SDS011;51060;42.640;24.356;2024-01-10T13:14:47;4.20;;;3.33;;
32824;SDS011;51060;42.640;24.356;2024-01-10T13:17:13;4.33;;;3.50;;
32824;SDS011;51060;42.640;24.356;2024-01-10T13:19:38;4.77;;;4.27;;
32824;SDS011;51060;42.640;24.356;2024-01-10T13:22:04;4.50;;;3.07;;
32824;SDS011;51060;42.640;24.356;2024-01-10T13:24:30;9.47;;;7.70;;
32824;SDS011;51060;42.640;24.356;2024-01-10T13:26:55;8.67;;;7.37;;
32824;SDS011;51060;42.640;24.356;2024-01-10T13:29:21;22.83;;;12.97;;
32824;SDS011;51060;42.640;24.356;2024-01-10T13:31:47;8.83;;;5.73;;
32824;SDS011;51060;42.640;24.356;2024-01-10T13:34:15;8.53;;;6.50;;
32824;SDS011;51060;42.640;24.356;2024-01-10T13:36:41;7.10;;;5.43;;
32824;SDS011;51060;42.640;24.356;2024-01-10T13:39:06;8.63;;;6.33;;
32824;SDS011;51060;42.640;24.356;2024-01-10T13:41:32;6.50;;;5.27;;
32824;SDS011;51060;42.640;24.356;2024-01-10T13:43:58;7.70;;;6.27;;
32824;SDS011;51060;42.640;24.356;2024-01-10T13:46:25;4.10;;;3.70;;
32824;SDS011;51060;42.640;24.356;2024-01-10T13:48:50;5.93;;;3.93;;
32824;SDS011;51060;42.640;24.356;2024-01-10T13:51:18;4.70;;;4.00;;
32824;SDS011;51060;42.640;24.356;2024-01-10T13:53:44;8.50;;;6.37;;
32824;SDS011;51060;42.640;24.356;2024-01-10T13:56:10;11.90;;;8.20;;
32824;SDS011;51060;42.640;24.356;2024-01-10T13:58:37;7.80;;;5.87;;
32824;SDS011;51060;42.640;24.356;2024-01-10T14:01:03;13.20;;;9.43;;
32824;SDS011;51060;42.640;24.356;2024-01-10T14:03:29;28.43;;;20.03;;
32824;SDS011;51060;42.640;24.356;2024-01-10T14:05:54;25.07;;;19.17;;
32824;SDS011;51060;42.640;24.356;2024-01-10T14:08:20;18.37;;;15.83;;
32824;SDS011;51060;42.640;24.356;2024-01-10T14:10:45;15.57;;;12.47;;
32824;SDS011;51060;42.640;24.356;2024-01-10T14:13:11;15.47;;;11.23;;
32824;SDS011;51060;42.640;24.356;2024-01-10T14:15:37;15.93;;;11.20;;
32824;SDS011;51060;42.640;24.356;2024-01-10T14:18:02;16.20;;;11.83;;
32824;SDS011;51060;42.640;24.356;2024-01-10T14:20:28;16.43;;;13.07;;
32824;SDS011;51060;42.640;24.356;2024-01-10T14:22:54;20.50;;;14.97;;
32824;SDS011;51060;42.640;24.356;2024-01-10T14:25:20;18.60;;;14.20;;
32824;SDS011;51060;42.640;24.356;2024-01-10T14:27:45;24.07;;;17.57;;
32824;SDS011;51060;42.640;24.356;2024-01-10T14:30:12;24.67;;;17.77;;
32824;SDS011;51060;42.640;24.356;2024-01-10T14:32:39;21.93;;;16.03;;
32824;SDS011;51060;42.640;24.356;2024-01-10T14:35:07;86.83;;;37.00;;
32824;SDS011;51060;42.640;24.356;2024-01-10T14:37:32;28.33;;;17.27;;
32824;SDS011;51060;42.640;24.356;2024-01-10T14:40:01;49.37;;;26.57;;
32824;SDS011;51060;42.640;24.356;2024-01-10T14:42:27;27.17;;;17.03;;
32824;SDS011;51060;42.640;24.356;2024-01-10T14:44:53;20.40;;;14.47;;